createdAt,value
2018-01-26T00:00:06.658Z,0.00
2018-01-26T00:01:06.653Z,0.00
2018-01-26T00:02:06.652Z,0.00
2018-01-26T00:03:06.651Z,0.00
2018-01-26T00:04:06.648Z,0.00
2018-01-26T00:05:06.644Z,0.00
2018-01-26T00:06:06.646Z,0.00
2018-01-26T00:07:06.639Z,0.00
2018-01-26T00:08:06.637Z,0.00
2018-01-26T00:09:06.636Z,0.00
2018-01-26T00:10:06.635Z,0.00
2018-01-26T00:11:06.628Z,0.00
2018-01-26T00:12:06.623Z,0.00
2018-01-26T00:13:06.624Z,0.00
2018-01-26T00:14:06.622Z,0.00
2018-01-26T00:15:06.617Z,0.00
2018-01-26T00:16:06.619Z,0.00
2018-01-26T00:17:06.613Z,0.00
2018-01-26T00:18:06.607Z,0.00
2018-01-26T00:19:06.606Z,0.00
2018-01-26T00:20:06.604Z,0.00
2018-01-26T00:21:06.600Z,0.00
2018-01-26T00:22:06.599Z,0.00
2018-01-26T00:23:06.595Z,0.00
2018-01-26T00:24:06.592Z,0.00
2018-01-26T00:25:06.590Z,0.00
2018-01-26T00:26:06.587Z,0.00
2018-01-26T00:27:06.589Z,0.00
2018-01-26T00:28:06.580Z,0.00
2018-01-26T00:29:06.578Z,0.00
2018-01-26T00:30:06.578Z,0.00
2018-01-26T00:31:06.572Z,0.00
2018-01-26T00:32:06.571Z,0.00
2018-01-26T00:33:06.571Z,0.00
2018-01-26T00:34:06.563Z,0.00
2018-01-26T00:35:06.564Z,0.00
2018-01-26T00:36:06.561Z,0.00
2018-01-26T00:37:06.556Z,0.00
2018-01-26T00:38:06.556Z,0.00
2018-01-26T00:39:06.552Z,0.00
2018-01-26T00:40:06.560Z,0.00
2018-01-26T00:41:06.545Z,0.00
2018-01-26T00:42:06.542Z,0.00
2018-01-26T00:43:06.543Z,0.00
2018-01-26T00:44:06.536Z,0.00
2018-01-26T00:45:06.534Z,0.00
2018-01-26T00:46:06.532Z,0.00
2018-01-26T00:47:06.529Z,0.00
2018-01-26T00:48:06.525Z,0.00
2018-01-26T00:49:06.524Z,0.00
2018-01-26T00:50:06.527Z,0.00
2018-01-26T00:51:06.520Z,0.00
2018-01-26T00:52:06.515Z,0.00
2018-01-26T00:53:06.516Z,0.00
2018-01-26T00:54:06.509Z,0.00
2018-01-26T00:55:06.506Z,0.00
2018-01-26T00:56:06.503Z,0.00
2018-01-26T00:57:06.501Z,0.00
2018-01-26T00:58:06.497Z,0.00
2018-01-26T00:59:06.497Z,0.00
2018-01-26T01:00:06.493Z,0.00
2018-01-26T01:01:06.489Z,0.00
2018-01-26T01:02:06.486Z,0.00
2018-01-26T01:03:06.484Z,0.00
2018-01-26T01:04:06.481Z,0.00
2018-01-26T01:05:06.478Z,0.00
2018-01-26T01:06:06.476Z,0.00
2018-01-26T01:07:06.474Z,0.00
2018-01-26T01:08:06.470Z,0.00
2018-01-26T01:09:06.466Z,0.00
2018-01-26T01:10:06.467Z,0.00
2018-01-26T01:11:06.462Z,0.00
2018-01-26T01:12:06.459Z,0.00
2018-01-26T01:13:06.455Z,0.00
2018-01-26T01:14:06.457Z,0.00
2018-01-26T01:15:06.451Z,0.00
2018-01-26T01:16:06.448Z,0.00
2018-01-26T01:17:06.445Z,0.00
2018-01-26T01:18:06.442Z,0.00
2018-01-26T01:19:06.440Z,0.00
2018-01-26T01:20:06.433Z,0.00
2018-01-26T01:21:06.434Z,0.00
2018-01-26T01:22:06.429Z,0.00
2018-01-26T01:23:06.427Z,0.00
2018-01-26T01:24:06.423Z,0.00
2018-01-26T01:25:06.421Z,0.00
2018-01-26T01:26:06.419Z,0.00
2018-01-26T01:27:06.414Z,0.00
2018-01-26T01:28:06.411Z,0.00
2018-01-26T01:29:06.407Z,0.00
2018-01-26T01:30:06.405Z,0.00
2018-01-26T01:31:06.402Z,0.00
2018-01-26T01:32:06.401Z,0.00
2018-01-26T01:33:06.400Z,0.00
2018-01-26T01:34:06.394Z,0.00
2018-01-26T01:35:06.387Z,0.00
2018-01-26T01:36:06.388Z,0.00
2018-01-26T01:37:06.384Z,0.00
2018-01-26T01:38:06.386Z,0.00
2018-01-26T01:39:06.378Z,0.00
2018-01-26T01:40:06.375Z,0.00
2018-01-26T01:41:06.372Z,0.00
2018-01-26T01:42:06.370Z,0.00
2018-01-26T01:43:06.381Z,0.00
2018-01-26T01:44:06.367Z,0.00
2018-01-26T01:45:06.360Z,0.00
2018-01-26T01:46:06.356Z,0.00
2018-01-26T01:47:06.355Z,0.00
2018-01-26T01:48:06.352Z,0.00
2018-01-26T01:49:06.351Z,0.00
2018-01-26T01:50:06.345Z,0.00
2018-01-26T01:51:06.343Z,0.00
2018-01-26T01:52:06.339Z,0.00
2018-01-26T01:53:06.335Z,0.00
2018-01-26T01:54:06.332Z,0.00
2018-01-26T01:55:06.332Z,0.00
2018-01-26T01:56:06.328Z,0.00
2018-01-26T01:57:06.325Z,0.00
2018-01-26T01:58:06.349Z,0.00
2018-01-26T01:59:06.319Z,0.00
2018-01-26T02:00:06.314Z,0.00
2018-01-26T02:01:06.311Z,0.00
2018-01-26T02:02:06.309Z,0.00
2018-01-26T02:03:06.306Z,0.00
2018-01-26T02:04:06.304Z,0.00
2018-01-26T02:05:06.299Z,0.00
2018-01-26T02:06:06.299Z,0.00
2018-01-26T02:07:06.294Z,0.00
2018-01-26T02:08:06.287Z,0.00
2018-01-26T02:09:06.286Z,0.00
2018-01-26T02:10:06.282Z,0.00
2018-01-26T02:11:06.283Z,0.00
2018-01-26T02:12:06.304Z,0.00
2018-01-26T02:13:06.274Z,0.00
2018-01-26T02:14:06.274Z,0.00
2018-01-26T02:15:06.271Z,0.00
2018-01-26T02:16:06.270Z,0.00
2018-01-26T02:17:06.267Z,0.00
2018-01-26T02:18:06.259Z,0.00
2018-01-26T02:19:06.261Z,0.00
2018-01-26T02:20:06.254Z,0.00
2018-01-26T02:21:06.251Z,0.00
2018-01-26T02:22:06.251Z,0.00
2018-01-26T02:23:06.248Z,0.00
2018-01-26T02:24:06.244Z,0.00
2018-01-26T02:25:06.240Z,0.00
2018-01-26T02:26:06.236Z,0.00
2018-01-26T02:27:06.233Z,0.00
2018-01-26T02:28:06.229Z,0.00
2018-01-26T02:29:06.226Z,0.00
2018-01-26T02:30:06.228Z,0.00
2018-01-26T02:31:06.222Z,0.00
2018-01-26T02:32:06.218Z,0.00
2018-01-26T02:33:06.214Z,0.00
2018-01-26T02:34:06.212Z,0.00
2018-01-26T02:35:06.208Z,0.00
2018-01-26T02:36:06.205Z,0.00
2018-01-26T02:37:06.203Z,0.00
2018-01-26T02:38:06.201Z,0.00
2018-01-26T02:39:06.198Z,0.00
2018-01-26T02:40:06.197Z,0.00
2018-01-26T02:41:06.203Z,0.00
2018-01-26T02:42:06.190Z,0.00
2018-01-26T02:43:06.182Z,0.00
2018-01-26T02:44:06.182Z,0.00
2018-01-26T02:45:06.178Z,0.00
2018-01-26T02:46:06.179Z,0.00
2018-01-26T02:47:06.178Z,0.00
2018-01-26T02:48:06.170Z,0.00
2018-01-26T02:49:06.167Z,0.00
2018-01-26T02:50:06.164Z,0.00
2018-01-26T02:51:06.161Z,0.00
2018-01-26T02:52:06.158Z,0.00
2018-01-26T02:53:06.159Z,0.00
2018-01-26T02:54:06.160Z,0.00
2018-01-26T02:55:06.154Z,0.00
2018-01-26T02:56:06.146Z,0.00
2018-01-26T02:57:06.145Z,0.00
2018-01-26T02:58:06.139Z,0.00
2018-01-26T02:59:06.136Z,0.00
2018-01-26T03:00:06.133Z,0.00
2018-01-26T03:01:06.134Z,0.00
2018-01-26T03:02:06.122Z,0.00
2018-01-26T03:03:06.124Z,0.00
2018-01-26T03:04:06.120Z,0.00
2018-01-26T03:05:06.114Z,0.00
2018-01-26T03:06:06.116Z,0.00
2018-01-26T03:07:06.110Z,0.00
2018-01-26T03:08:06.106Z,0.00
2018-01-26T03:09:06.103Z,0.00
2018-01-26T03:10:06.102Z,0.00
2018-01-26T03:11:06.097Z,0.00
2018-01-26T03:12:06.089Z,0.00
2018-01-26T03:13:06.093Z,0.00
2018-01-26T03:14:06.090Z,0.00
2018-01-26T03:15:06.084Z,0.00
2018-01-26T03:16:06.081Z,0.00
2018-01-26T03:17:06.079Z,0.00
2018-01-26T03:18:06.076Z,0.00
2018-01-26T03:19:06.071Z,0.00
2018-01-26T03:20:06.067Z,0.00
2018-01-26T03:21:06.061Z,0.00
2018-01-26T03:22:06.068Z,0.00
2018-01-26T03:23:06.059Z,0.00
2018-01-26T03:24:06.055Z,0.00
2018-01-26T03:25:06.051Z,0.00
2018-01-26T03:26:06.047Z,0.00
2018-01-26T03:27:06.047Z,0.00
2018-01-26T03:28:06.044Z,0.00
2018-01-26T03:29:06.044Z,0.00
2018-01-26T03:30:06.038Z,0.00
2018-01-26T03:31:06.031Z,0.00
2018-01-26T03:32:06.031Z,0.00
2018-01-26T03:33:06.024Z,0.00
2018-01-26T03:34:06.020Z,0.00
2018-01-26T03:35:06.017Z,0.00
2018-01-26T03:36:06.012Z,0.00
2018-01-26T03:37:06.017Z,0.00
2018-01-26T03:38:06.010Z,0.00
2018-01-26T03:39:06.003Z,0.00
2018-01-26T03:40:06.000Z,0.00
2018-01-26T03:41:05.997Z,0.00
2018-01-26T03:42:05.993Z,0.00
2018-01-26T03:43:05.994Z,0.00
2018-01-26T03:44:05.986Z,0.00
2018-01-26T03:45:05.982Z,0.00
2018-01-26T03:46:05.983Z,0.00
2018-01-26T03:47:05.977Z,0.00
2018-01-26T03:48:05.971Z,0.00
2018-01-26T03:49:05.971Z,0.00
2018-01-26T03:50:05.965Z,0.00
2018-01-26T03:51:05.962Z,0.00
2018-01-26T03:52:05.958Z,0.00
2018-01-26T03:53:05.957Z,0.00
2018-01-26T03:54:05.949Z,0.00
2018-01-26T03:55:05.949Z,0.00
2018-01-26T03:56:05.943Z,0.00
2018-01-26T03:57:05.948Z,0.00
2018-01-26T03:58:05.938Z,0.00
2018-01-26T03:59:05.935Z,0.00
2018-01-26T04:00:05.934Z,0.00
2018-01-26T04:01:05.927Z,0.00
2018-01-26T04:02:05.928Z,0.00
2018-01-26T04:03:05.921Z,0.00
2018-01-26T04:04:05.918Z,0.00
2018-01-26T04:05:05.913Z,0.00
2018-01-26T04:06:05.911Z,0.00
2018-01-26T04:07:05.914Z,0.00
2018-01-26T04:08:05.902Z,0.00
2018-01-26T04:09:05.899Z,0.00
2018-01-26T04:10:05.896Z,0.00
2018-01-26T04:11:05.893Z,0.00
2018-01-26T04:12:05.890Z,0.00
2018-01-26T04:13:05.885Z,0.00
2018-01-26T04:14:05.882Z,0.00
2018-01-26T04:15:05.879Z,0.00
2018-01-26T04:16:05.876Z,0.00
2018-01-26T04:17:05.871Z,0.00
2018-01-26T04:18:05.873Z,0.00
2018-01-26T04:19:05.867Z,0.00
2018-01-26T04:20:05.860Z,0.00
2018-01-26T04:21:05.858Z,0.00
2018-01-26T04:22:05.854Z,0.00
2018-01-26T04:23:05.854Z,0.00
2018-01-26T04:24:05.846Z,0.00
2018-01-26T04:25:05.843Z,0.00
2018-01-26T04:26:05.841Z,0.00
2018-01-26T04:27:05.835Z,0.00
2018-01-26T04:28:05.833Z,0.00
2018-01-26T04:29:05.859Z,0.00
2018-01-26T04:30:05.827Z,0.00
2018-01-26T04:31:05.824Z,0.00
2018-01-26T04:32:05.818Z,0.00
2018-01-26T04:33:05.813Z,0.00
2018-01-26T04:34:05.809Z,0.00
2018-01-26T04:35:05.808Z,0.00
2018-01-26T04:36:05.800Z,0.00
2018-01-26T04:37:05.802Z,0.00
2018-01-26T04:38:05.794Z,0.00
2018-01-26T04:39:05.790Z,0.00
2018-01-26T04:40:05.784Z,0.00
2018-01-26T04:41:05.780Z,0.00
2018-01-26T04:42:05.780Z,0.00
2018-01-26T04:43:05.775Z,0.00
2018-01-26T04:44:05.768Z,0.00
2018-01-26T04:45:05.768Z,0.00
2018-01-26T04:46:05.762Z,0.00
2018-01-26T04:47:05.759Z,0.00
2018-01-26T04:48:05.753Z,0.00
2018-01-26T04:49:05.749Z,0.00
2018-01-26T04:50:05.746Z,0.00
2018-01-26T04:51:05.744Z,0.00
2018-01-26T04:52:05.736Z,0.00
2018-01-26T04:53:05.732Z,0.00
2018-01-26T04:54:05.730Z,0.00
2018-01-26T04:55:05.724Z,0.00
2018-01-26T04:56:05.721Z,0.00
2018-01-26T04:57:05.717Z,0.00
2018-01-26T04:58:05.712Z,0.00
2018-01-26T04:59:05.708Z,0.00
2018-01-26T05:00:05.705Z,0.00
2018-01-26T05:01:05.728Z,0.00
2018-01-26T05:02:05.694Z,0.00
2018-01-26T05:03:05.695Z,0.00
2018-01-26T05:04:05.689Z,0.00
2018-01-26T05:05:05.689Z,0.00
2018-01-26T05:06:05.679Z,0.00
2018-01-26T05:07:05.676Z,0.00
2018-01-26T05:08:05.672Z,0.00
2018-01-26T05:09:05.668Z,0.00
2018-01-26T05:10:05.664Z,0.00
2018-01-26T05:11:05.659Z,0.00
2018-01-26T05:12:05.653Z,0.00
2018-01-26T05:13:05.651Z,0.00
2018-01-26T05:14:05.646Z,0.00
2018-01-26T05:15:05.645Z,0.00
2018-01-26T05:16:05.639Z,0.00
2018-01-26T05:17:05.633Z,0.00
2018-01-26T05:18:05.631Z,0.00
2018-01-26T05:19:05.625Z,0.00
2018-01-26T05:20:05.626Z,0.00
2018-01-26T05:21:05.617Z,0.00
2018-01-26T05:22:05.612Z,0.00
2018-01-26T05:23:05.617Z,0.00
2018-01-26T05:24:05.601Z,0.00
2018-01-26T05:25:05.609Z,0.00
2018-01-26T05:26:05.595Z,0.00
2018-01-26T05:27:05.594Z,0.00
2018-01-26T05:28:05.587Z,0.00
2018-01-26T05:29:05.584Z,0.00
2018-01-26T05:30:05.580Z,0.00
2018-01-26T05:31:05.573Z,0.00
2018-01-26T05:32:05.571Z,0.00
2018-01-26T05:33:05.566Z,0.00
2018-01-26T05:34:05.565Z,0.00
2018-01-26T05:35:05.566Z,0.00
2018-01-26T05:36:05.557Z,0.00
2018-01-26T05:37:05.550Z,0.00
2018-01-26T05:38:05.544Z,0.00
2018-01-26T05:39:05.540Z,0.00
2018-01-26T05:40:05.533Z,0.00
2018-01-26T05:41:05.530Z,0.00
2018-01-26T05:42:05.525Z,0.00
2018-01-26T05:43:05.521Z,0.00
2018-01-26T05:44:05.525Z,0.00
2018-01-26T05:45:05.512Z,0.00
2018-01-26T05:46:05.511Z,0.00
2018-01-26T05:47:05.503Z,0.00
2018-01-26T05:48:05.500Z,0.00
2018-01-26T05:49:05.495Z,0.00
2018-01-26T05:50:05.495Z,0.00
2018-01-26T05:51:05.485Z,0.00
2018-01-26T05:52:05.480Z,0.00
2018-01-26T05:53:05.475Z,0.00
2018-01-26T05:54:05.470Z,0.00
2018-01-26T05:55:05.467Z,0.00
2018-01-26T05:56:05.465Z,0.00
2018-01-26T05:57:05.458Z,0.00
2018-01-26T05:58:05.453Z,0.00
2018-01-26T05:59:05.448Z,0.00
2018-01-26T06:00:05.446Z,0.00
2018-01-26T06:01:05.443Z,0.00
2018-01-26T06:02:05.435Z,0.00
2018-01-26T06:03:05.429Z,0.00
2018-01-26T06:04:05.425Z,0.00
2018-01-26T06:05:05.419Z,0.00
2018-01-26T06:06:05.417Z,0.00
2018-01-26T06:07:05.417Z,0.00
2018-01-26T06:08:05.410Z,0.00
2018-01-26T06:09:05.402Z,0.00
2018-01-26T06:10:05.398Z,0.00
2018-01-26T06:11:05.394Z,0.00
2018-01-26T06:12:05.390Z,0.00
2018-01-26T06:13:05.384Z,0.00
2018-01-26T06:14:05.380Z,0.00
2018-01-26T06:15:05.375Z,0.00
2018-01-26T06:16:05.370Z,0.00
2018-01-26T06:17:05.364Z,0.00
2018-01-26T06:18:05.366Z,0.00
2018-01-26T06:19:05.355Z,0.00
2018-01-26T06:20:05.352Z,0.00
2018-01-26T06:21:05.348Z,0.00
2018-01-26T06:22:05.425Z,0.00
2018-01-26T06:23:05.339Z,0.00
2018-01-26T06:24:05.333Z,0.00
2018-01-26T06:25:05.329Z,0.00
2018-01-26T06:26:05.326Z,0.00
2018-01-26T06:27:05.323Z,0.00
2018-01-26T06:28:05.317Z,0.00
2018-01-26T06:29:05.311Z,0.00
2018-01-26T06:30:05.307Z,0.00
2018-01-26T06:31:05.307Z,0.00
2018-01-26T06:32:05.306Z,0.00
2018-01-26T06:33:05.294Z,0.00
2018-01-26T06:34:05.291Z,0.00
2018-01-26T06:35:05.285Z,0.00
2018-01-26T06:36:05.282Z,0.00
2018-01-26T06:37:05.286Z,0.00
2018-01-26T06:38:05.273Z,0.00
2018-01-26T06:39:05.270Z,0.00
2018-01-26T06:40:05.262Z,0.00
2018-01-26T06:41:05.267Z,0.00
2018-01-26T06:42:05.258Z,0.00
2018-01-26T06:43:05.257Z,0.00
2018-01-26T06:44:05.250Z,0.00
2018-01-26T06:45:05.245Z,0.00
2018-01-26T06:46:05.243Z,0.00
2018-01-26T06:47:05.235Z,0.00
2018-01-26T06:48:05.231Z,0.00
2018-01-26T06:49:05.231Z,0.00
2018-01-26T06:50:05.224Z,0.00
2018-01-26T06:51:05.220Z,0.00
2018-01-26T06:52:05.216Z,0.00
2018-01-26T06:53:05.207Z,0.00
2018-01-26T06:54:05.208Z,0.00
2018-01-26T06:55:05.206Z,0.00
2018-01-26T06:56:05.198Z,0.00
2018-01-26T06:57:05.195Z,0.00
2018-01-26T06:58:05.192Z,0.00
2018-01-26T06:59:05.188Z,0.00
2018-01-26T07:00:05.183Z,0.00
2018-01-26T07:01:05.181Z,0.00
2018-01-26T07:02:05.176Z,0.00
2018-01-26T07:03:05.173Z,0.00
2018-01-26T07:04:05.166Z,0.00
2018-01-26T07:05:05.167Z,0.00
2018-01-26T07:06:05.161Z,0.00
2018-01-26T07:07:05.166Z,0.00
2018-01-26T07:08:05.153Z,0.00
2018-01-26T07:09:05.148Z,0.00
2018-01-26T07:10:05.146Z,0.00
2018-01-26T07:11:05.142Z,0.00
2018-01-26T07:12:05.141Z,0.00
2018-01-26T07:13:05.134Z,0.00
2018-01-26T07:14:05.146Z,0.00
2018-01-26T07:15:05.125Z,0.00
2018-01-26T07:16:05.121Z,0.00
2018-01-26T07:17:05.122Z,0.00
2018-01-26T07:18:05.115Z,0.00
2018-01-26T07:19:05.113Z,0.00
2018-01-26T07:20:05.106Z,0.00
2018-01-26T07:21:05.104Z,0.00
2018-01-26T07:22:05.100Z,0.00
2018-01-26T07:23:05.094Z,0.00
2018-01-26T07:24:05.092Z,0.00
2018-01-26T07:25:05.086Z,0.00
2018-01-26T07:26:05.083Z,0.00
2018-01-26T07:27:05.081Z,0.00
2018-01-26T07:28:05.076Z,0.00
2018-01-26T07:29:05.069Z,0.00
2018-01-26T07:30:05.066Z,5.63
2018-01-26T07:31:05.062Z,5.63
2018-01-26T07:32:05.060Z,5.63
2018-01-26T07:33:05.052Z,5.63
2018-01-26T07:34:05.049Z,5.63
2018-01-26T07:35:05.048Z,5.63
2018-01-26T07:36:05.045Z,5.63
2018-01-26T07:37:05.044Z,5.63
2018-01-26T07:38:05.034Z,5.63
2018-01-26T07:39:05.032Z,5.63
2018-01-26T07:40:05.027Z,5.63
2018-01-26T07:41:05.022Z,5.63
2018-01-26T07:42:05.018Z,5.63
2018-01-26T07:43:05.017Z,5.63
2018-01-26T07:44:05.012Z,11.25
2018-01-26T07:45:05.005Z,11.25
2018-01-26T07:46:05.005Z,5.63
2018-01-26T07:47:05.001Z,5.63
2018-01-26T07:48:04.998Z,5.63
2018-01-26T07:49:04.990Z,5.63
2018-01-26T07:50:04.988Z,5.63
2018-01-26T07:51:04.985Z,5.63
2018-01-26T07:52:04.981Z,5.63
2018-01-26T07:53:04.978Z,5.63
2018-01-26T07:54:04.971Z,5.63
2018-01-26T07:55:04.971Z,5.63
2018-01-26T07:56:04.965Z,5.63
2018-01-26T07:57:04.961Z,5.63
2018-01-26T07:58:04.964Z,5.63
2018-01-26T07:59:04.956Z,5.63
2018-01-26T08:00:04.950Z,5.63
2018-01-26T08:01:04.950Z,5.63
2018-01-26T08:02:04.944Z,5.63
2018-01-26T08:03:05.008Z,5.63
2018-01-26T08:04:04.938Z,5.63
2018-01-26T08:05:04.934Z,5.63
2018-01-26T08:06:04.929Z,5.63
2018-01-26T08:07:04.922Z,5.63
2018-01-26T08:08:04.921Z,5.63
2018-01-26T08:09:04.918Z,5.63
2018-01-26T08:10:04.914Z,11.25
2018-01-26T08:11:04.910Z,11.25
2018-01-26T08:12:04.906Z,11.25
2018-01-26T08:13:04.905Z,11.25
2018-01-26T08:14:04.900Z,11.25
2018-01-26T08:15:04.896Z,11.25
2018-01-26T08:16:04.891Z,11.25
2018-01-26T08:17:04.887Z,11.25
2018-01-26T08:18:04.886Z,11.25
2018-01-26T08:19:04.880Z,5.63
2018-01-26T08:20:04.876Z,5.63
2018-01-26T08:21:04.872Z,5.63
2018-01-26T08:22:04.867Z,5.63
2018-01-26T08:23:04.866Z,5.63
2018-01-26T08:24:04.859Z,5.63
2018-01-26T08:25:04.856Z,5.63
2018-01-26T08:26:04.851Z,5.63
2018-01-26T08:27:04.848Z,5.63
2018-01-26T08:28:04.847Z,5.63
2018-01-26T08:29:04.840Z,5.63
2018-01-26T08:30:04.840Z,5.63
2018-01-26T08:31:04.833Z,5.63
2018-01-26T08:32:04.828Z,5.63
2018-01-26T08:33:04.825Z,5.63
2018-01-26T08:34:04.818Z,5.63
2018-01-26T08:35:04.817Z,5.63
2018-01-26T08:36:04.812Z,5.63
2018-01-26T08:37:04.812Z,5.63
2018-01-26T08:38:04.807Z,5.63
2018-01-26T08:39:04.802Z,5.63
2018-01-26T08:40:04.798Z,5.63
2018-01-26T08:41:04.792Z,5.63
2018-01-26T08:42:04.797Z,5.63
2018-01-26T08:43:04.786Z,11.25
2018-01-26T08:44:04.782Z,11.25
2018-01-26T08:45:04.779Z,11.25
2018-01-26T08:46:04.777Z,11.25
2018-01-26T08:47:04.776Z,11.25
2018-01-26T08:48:04.770Z,11.25
2018-01-26T08:49:04.851Z,11.25
2018-01-26T08:50:04.762Z,11.25
2018-01-26T08:51:04.758Z,11.25
2018-01-26T08:52:04.752Z,11.25
2018-01-26T08:53:04.750Z,16.88
2018-01-26T08:54:04.747Z,16.88
2018-01-26T08:55:04.742Z,16.88
2018-01-26T08:56:04.741Z,16.88
2018-01-26T08:57:04.735Z,16.88
2018-01-26T08:58:04.731Z,16.88
2018-01-26T08:59:04.731Z,22.50
2018-01-26T09:00:04.724Z,22.50
2018-01-26T09:01:04.718Z,22.50
2018-01-26T09:02:04.717Z,22.50
2018-01-26T09:03:04.714Z,22.50
2018-01-26T09:04:04.710Z,22.50
2018-01-26T09:05:04.705Z,22.50
2018-01-26T09:06:04.700Z,22.50
2018-01-26T09:07:04.698Z,22.50
2018-01-26T09:08:04.695Z,22.50
2018-01-26T09:09:04.691Z,22.50
2018-01-26T09:10:04.688Z,16.88
2018-01-26T09:11:04.683Z,16.88
2018-01-26T09:12:04.680Z,16.88
2018-01-26T09:13:04.676Z,16.88
2018-01-26T09:14:04.677Z,16.88
2018-01-26T09:15:04.670Z,16.88
2018-01-26T09:16:04.696Z,16.88
2018-01-26T09:17:04.663Z,16.88
2018-01-26T09:18:04.658Z,16.88
2018-01-26T09:19:04.656Z,16.88
2018-01-26T09:20:04.651Z,16.88
2018-01-26T09:21:04.650Z,16.88
2018-01-26T09:22:04.645Z,16.88
2018-01-26T09:23:04.640Z,16.88
2018-01-26T09:24:04.636Z,16.88
2018-01-26T09:25:04.633Z,16.88
2018-01-26T09:26:04.629Z,22.50
2018-01-26T09:27:04.627Z,22.50
2018-01-26T09:28:04.632Z,22.50
2018-01-26T09:29:04.624Z,22.50
2018-01-26T09:30:04.617Z,22.50
2018-01-26T09:31:04.613Z,22.50
2018-01-26T09:32:04.608Z,22.50
2018-01-26T09:33:04.610Z,22.50
2018-01-26T09:34:04.608Z,22.50
2018-01-26T09:35:04.598Z,22.50
2018-01-26T09:36:04.594Z,22.50
2018-01-26T09:37:04.591Z,22.50
2018-01-26T09:38:04.589Z,22.50
2018-01-26T09:39:04.584Z,22.50
2018-01-26T09:40:04.580Z,28.13
2018-01-26T09:41:04.582Z,28.13
2018-01-26T09:42:04.575Z,28.13
2018-01-26T09:43:04.573Z,28.13
2018-01-26T09:44:04.567Z,28.13
2018-01-26T09:45:04.586Z,28.13
2018-01-26T09:46:04.562Z,33.75
2018-01-26T09:47:04.557Z,33.75
2018-01-26T09:48:04.552Z,33.75
2018-01-26T09:49:04.549Z,33.75
2018-01-26T09:50:04.546Z,33.75
2018-01-26T09:51:04.543Z,33.75
2018-01-26T09:52:04.539Z,33.75
2018-01-26T09:53:04.535Z,39.38
2018-01-26T09:54:04.532Z,39.38
2018-01-26T09:55:04.524Z,39.38
2018-01-26T09:56:04.523Z,39.38
2018-01-26T09:57:04.521Z,45.00
2018-01-26T09:58:04.518Z,45.00
2018-01-26T09:59:04.517Z,45.00
2018-01-26T10:00:04.550Z,45.00
2018-01-26T10:01:04.507Z,45.00
2018-01-26T10:02:04.501Z,45.00
2018-01-26T10:03:04.498Z,50.63
2018-01-26T10:04:04.495Z,50.63
2018-01-26T10:05:04.491Z,50.63
2018-01-26T10:06:04.487Z,50.63
2018-01-26T10:07:04.488Z,50.63
2018-01-26T10:08:04.480Z,50.63
2018-01-26T10:09:04.478Z,50.63
2018-01-26T10:10:04.475Z,50.63
2018-01-26T10:11:04.473Z,50.63
2018-01-26T10:12:04.468Z,56.25
2018-01-26T10:13:04.461Z,56.25
2018-01-26T10:14:04.457Z,56.25
2018-01-26T10:15:04.456Z,56.25
2018-01-26T10:16:04.451Z,56.25
2018-01-26T10:17:04.447Z,50.63
2018-01-26T10:18:04.446Z,45.00
2018-01-26T10:19:04.442Z,39.38
2018-01-26T10:20:04.436Z,39.38
2018-01-26T10:21:04.434Z,39.38
2018-01-26T10:22:04.429Z,33.75
2018-01-26T10:23:04.425Z,39.38
2018-01-26T10:24:04.422Z,39.38
2018-01-26T10:25:04.416Z,39.38
2018-01-26T10:26:04.415Z,39.38
2018-01-26T10:27:04.414Z,39.38
2018-01-26T10:28:04.436Z,39.38
2018-01-26T10:29:04.405Z,39.38
2018-01-26T10:30:04.404Z,45.00
2018-01-26T10:31:04.396Z,45.00
2018-01-26T10:32:04.391Z,50.63
2018-01-26T10:33:04.388Z,50.63
2018-01-26T10:34:04.384Z,56.25
2018-01-26T10:35:04.380Z,56.25
2018-01-26T10:36:04.378Z,61.88
2018-01-26T10:37:04.373Z,67.50
2018-01-26T10:38:04.373Z,73.13
2018-01-26T10:39:04.370Z,78.75
2018-01-26T10:40:04.360Z,78.75
2018-01-26T10:41:04.358Z,73.13
2018-01-26T10:42:04.355Z,73.13
2018-01-26T10:43:04.354Z,73.13
2018-01-26T10:44:04.346Z,67.50
2018-01-26T10:45:04.344Z,67.50
2018-01-26T10:46:04.340Z,84.38
2018-01-26T10:47:04.335Z,90.00
2018-01-26T10:48:04.333Z,84.38
2018-01-26T10:49:04.327Z,73.13
2018-01-26T10:50:04.324Z,61.88
2018-01-26T10:51:04.319Z,56.25
2018-01-26T10:52:04.315Z,56.25
2018-01-26T10:53:04.316Z,56.25
2018-01-26T10:54:04.313Z,56.25
2018-01-26T10:55:04.304Z,50.63
2018-01-26T10:56:04.298Z,56.25
2018-01-26T10:57:04.296Z,56.25
2018-01-26T10:58:04.292Z,56.25
2018-01-26T10:59:04.318Z,56.25
2018-01-26T11:00:04.289Z,56.25
2018-01-26T11:01:04.280Z,50.63
2018-01-26T11:02:04.276Z,50.63
2018-01-26T11:03:04.275Z,50.63
2018-01-26T11:04:04.266Z,50.63
2018-01-26T11:05:04.262Z,56.25
2018-01-26T11:06:04.261Z,56.25
2018-01-26T11:07:04.256Z,56.25
2018-01-26T11:08:04.253Z,50.63
2018-01-26T11:09:04.266Z,50.63
2018-01-26T11:10:04.244Z,56.25
2018-01-26T11:11:04.240Z,61.88
2018-01-26T11:12:04.250Z,61.88
2018-01-26T11:13:04.279Z,56.25
2018-01-26T11:14:04.229Z,56.25
2018-01-26T11:15:04.227Z,56.25
2018-01-26T11:16:04.220Z,61.88
2018-01-26T11:17:04.216Z,61.88
2018-01-26T11:18:04.212Z,61.88
2018-01-26T11:19:04.209Z,61.88
2018-01-26T11:20:04.202Z,67.50
2018-01-26T11:21:04.199Z,73.13
2018-01-26T11:22:04.205Z,67.50
2018-01-26T11:23:04.195Z,73.13
2018-01-26T11:24:04.195Z,73.13
2018-01-26T11:25:04.182Z,73.13
2018-01-26T11:26:04.180Z,78.75
2018-01-26T11:27:04.179Z,67.50
2018-01-26T11:28:04.171Z,56.25
2018-01-26T11:29:04.167Z,56.25
2018-01-26T11:30:04.162Z,61.88
2018-01-26T11:31:04.160Z,61.88
2018-01-26T11:32:04.151Z,61.88
2018-01-26T11:33:04.152Z,67.50
2018-01-26T11:34:04.148Z,67.50
2018-01-26T11:35:04.144Z,67.50
2018-01-26T11:36:04.140Z,67.50
2018-01-26T11:37:04.138Z,67.50
2018-01-26T11:38:04.131Z,73.13
2018-01-26T11:39:04.128Z,73.13
2018-01-26T11:40:04.121Z,67.50
2018-01-26T11:41:04.119Z,61.88
2018-01-26T11:42:04.117Z,56.25
2018-01-26T11:43:04.113Z,61.88
2018-01-26T11:44:04.109Z,73.13
2018-01-26T11:45:04.105Z,78.75
2018-01-26T11:46:04.101Z,84.38
2018-01-26T11:47:04.099Z,78.75
2018-01-26T11:48:04.095Z,73.13
2018-01-26T11:49:04.089Z,78.75
2018-01-26T11:50:04.084Z,67.50
2018-01-26T11:51:04.085Z,67.50
2018-01-26T11:52:04.077Z,73.13
2018-01-26T11:53:04.073Z,78.75
2018-01-26T11:54:04.071Z,90.00
2018-01-26T11:55:04.067Z,95.63
2018-01-26T11:56:04.063Z,90.00
2018-01-26T11:57:04.059Z,101.25
2018-01-26T11:58:04.055Z,101.25
2018-01-26T11:59:04.052Z,112.50
2018-01-26T12:00:04.048Z,106.88
2018-01-26T12:01:04.045Z,95.63
2018-01-26T12:02:04.040Z,95.63
2018-01-26T12:03:04.034Z,101.25
2018-01-26T12:04:04.032Z,106.88
2018-01-26T12:05:04.029Z,112.50
2018-01-26T12:06:04.033Z,123.75
2018-01-26T12:07:04.022Z,112.50
2018-01-26T12:08:04.017Z,101.25
2018-01-26T12:09:04.014Z,90.00
2018-01-26T12:10:04.009Z,95.63
2018-01-26T12:11:04.005Z,101.25
2018-01-26T12:12:04.004Z,106.88
2018-01-26T12:13:04.010Z,112.50
2018-01-26T12:14:03.999Z,123.75
2018-01-26T12:15:03.992Z,118.13
2018-01-26T12:16:03.986Z,106.88
2018-01-26T12:17:03.986Z,95.63
2018-01-26T12:18:03.982Z,78.75
2018-01-26T12:19:03.976Z,78.75
2018-01-26T12:20:03.971Z,101.25
2018-01-26T12:21:03.968Z,90.00
2018-01-26T12:22:03.963Z,73.13
2018-01-26T12:23:03.959Z,73.13
2018-01-26T12:24:04.002Z,73.13
2018-01-26T12:25:03.952Z,73.13
2018-01-26T12:26:03.947Z,78.75
2018-01-26T12:27:03.943Z,84.38
2018-01-26T12:28:03.938Z,90.00
2018-01-26T12:29:03.936Z,90.00
2018-01-26T12:30:03.934Z,90.00
2018-01-26T12:31:03.927Z,84.38
2018-01-26T12:32:03.924Z,78.75
2018-01-26T12:33:03.918Z,73.13
2018-01-26T12:34:03.916Z,73.13
2018-01-26T12:35:03.913Z,84.38
2018-01-26T12:36:03.906Z,78.75
2018-01-26T12:37:03.904Z,78.75
2018-01-26T12:38:03.901Z,67.50
2018-01-26T12:39:03.896Z,61.88
2018-01-26T12:40:03.888Z,61.88
2018-01-26T12:41:03.886Z,67.50
2018-01-26T12:42:03.884Z,67.50
2018-01-26T12:43:03.879Z,73.13
2018-01-26T12:44:03.876Z,73.13
2018-01-26T12:45:03.871Z,78.75
2018-01-26T12:46:03.865Z,78.75
2018-01-26T12:47:03.864Z,78.75
2018-01-26T12:48:03.857Z,67.50
2018-01-26T12:49:03.856Z,56.25
2018-01-26T12:50:03.850Z,50.63
2018-01-26T12:51:03.847Z,56.25
2018-01-26T12:52:03.840Z,56.25
2018-01-26T12:53:03.838Z,56.25
2018-01-26T12:54:03.837Z,50.63
2018-01-26T12:55:03.833Z,56.25
2018-01-26T12:56:03.828Z,67.50
2018-01-26T12:57:03.822Z,67.50
2018-01-26T12:58:03.818Z,56.25
2018-01-26T12:59:03.812Z,45.00
2018-01-26T13:00:03.809Z,45.00
2018-01-26T13:01:03.822Z,39.38
2018-01-26T13:02:03.801Z,39.38
2018-01-26T13:03:03.804Z,45.00
2018-01-26T13:04:03.794Z,50.63
2018-01-26T13:05:03.789Z,50.63
2018-01-26T13:06:03.784Z,61.88
2018-01-26T13:07:03.781Z,73.13
2018-01-26T13:08:03.791Z,73.13